createdAt,value
2018-03-15T00:00:00.705Z,-3.65
2018-03-15T00:01:10.437Z,-3.64
2018-03-15T00:02:20.164Z,-3.62
2018-03-15T00:03:29.630Z,-3.55
2018-03-15T00:04:39.623Z,-3.55
2018-03-15T00:05:49.617Z,-3.53
2018-03-15T00:06:59.606Z,-3.61
2018-03-15T00:08:08.844Z,-3.59
2018-03-15T00:09:18.565Z,-3.59
2018-03-15T00:10:28.556Z,-3.61
2018-03-15T00:11:38.293Z,-3.56
2018-03-15T00:12:48.290Z,-3.62
2018-03-15T00:13:58.285Z,-3.51
2018-03-15T00:15:08.030Z,-3.55
2018-03-15T00:16:18.021Z,-3.51
2018-03-15T00:17:27.750Z,-3.61
2018-03-15T00:18:37.749Z,-3.47
2018-03-15T00:19:47.738Z,-3.51
2018-03-15T00:20:57.733Z,-3.47
2018-03-15T00:22:07.462Z,-3.44
2018-03-15T00:23:17.448Z,-3.48
2018-03-15T00:24:26.903Z,-3.51
2018-03-15T00:25:36.685Z,-3.41
2018-03-15T00:26:46.413Z,-3.44
2018-03-15T00:27:56.405Z,-3.38
2018-03-15T00:29:05.865Z,-3.47
2018-03-15T00:30:15.593Z,-3.41
2018-03-15T00:31:25.587Z,-3.44
2018-03-15T00:32:35.581Z,-3.47
2018-03-15T00:33:44.777Z,-3.5
2018-03-15T00:34:54.577Z,-3.53
2018-03-15T00:36:04.310Z,-3.48
2018-03-15T00:37:13.878Z,-3.51
2018-03-15T00:38:23.865Z,-3.5
2018-03-15T00:39:33.058Z,-3.48
2018-03-15T00:40:42.639Z,-3.47
2018-03-15T00:41:52.372Z,-3.43
2018-03-15T00:43:02.100Z,-3.48
2018-03-15T00:44:12.095Z,-3.5
2018-03-15T00:45:22.088Z,-3.64
2018-03-15T00:46:31.545Z,-3.61
2018-03-15T00:47:41.541Z,-3.62
2018-03-15T00:48:51.538Z,-3.62
2018-03-15T00:50:01.262Z,-3.68
2018-03-15T00:51:10.986Z,-3.66
2018-03-15T00:52:20.713Z,-3.74
2018-03-15T00:53:30.710Z,-3.74
2018-03-15T00:54:40.492Z,-3.81
2018-03-15T00:55:50.505Z,-3.84
2018-03-15T00:57:00.225Z,-3.88
2018-03-15T00:58:09.961Z,-3.94
2018-03-15T00:59:20.117Z,-3.88
2018-03-15T01:00:29.841Z,-3.88
2018-03-15T01:01:39.843Z,-4.04
2018-03-15T01:02:49.563Z,-3.91
2018-03-15T01:03:59.293Z,-3.94
2018-03-15T01:05:09.022Z,-3.99
2018-03-15T01:06:19.020Z,-4.06
2018-03-15T01:07:29.015Z,-4.05
2018-03-15T01:08:39.019Z,-4.05
2018-03-15T01:09:48.746Z,-4.06
2018-03-15T01:10:58.749Z,-4.08
2018-03-15T01:12:08.206Z,-4.04
2018-03-15T01:13:17.938Z,-4.05
2018-03-15T01:14:27.930Z,-4.08
2018-03-15T01:15:37.663Z,-4.09
2018-03-15T01:16:47.660Z,-4.13
2018-03-15T01:17:57.765Z,-4.19
2018-03-15T01:19:07.489Z,-4.24
2018-03-15T01:20:17.479Z,-4.19
2018-03-15T01:21:27.467Z,-4.17
2018-03-15T01:22:37.455Z,-4.17
2018-03-15T01:23:47.456Z,-4.14
2018-03-15T01:24:57.447Z,-4.19
2018-03-15T01:26:07.173Z,-4.14
2018-03-15T01:27:17.261Z,-4.12
2018-03-15T01:28:27.254Z,-4.16
2018-03-15T01:29:36.980Z,-4.08
2018-03-15T01:30:46.439Z,-4.08
2018-03-15T01:31:55.898Z,-4.05
2018-03-15T01:33:05.624Z,-4.06
2018-03-15T01:34:15.345Z,-4.02
2018-03-15T01:35:25.338Z,-4.05
2018-03-15T01:36:35.338Z,-4.06
2018-03-15T01:37:44.529Z,-4.01
2018-03-15T01:38:54.253Z,-4.05
2018-03-15T01:40:03.712Z,-4.05
2018-03-15T01:41:13.166Z,-4.09
2018-03-15T01:42:22.353Z,-4.14
2018-03-15T01:43:32.390Z,-4.19
2018-03-15T01:44:42.386Z,-4.19
2018-03-15T01:45:52.113Z,-4.27
2018-03-15T01:47:02.114Z,-4.16
2018-03-15T01:48:11.854Z,-4.23
2018-03-15T01:49:21.580Z,-4.26
2018-03-15T01:50:31.039Z,-4.33
2018-03-15T01:51:41.047Z,-4.31
2018-03-15T01:52:51.042Z,-4.37
2018-03-15T01:54:01.063Z,-4.41
2018-03-15T01:55:11.056Z,-4.45
2018-03-15T01:56:21.050Z,-4.4
2018-03-15T01:57:31.047Z,-4.45
2018-03-15T01:58:40.773Z,-4.51
2018-03-15T01:59:50.768Z,-4.49
2018-03-15T02:01:00.502Z,-4.45
2018-03-15T02:02:09.700Z,-4.45
2018-03-15T02:03:19.433Z,-4.45
2018-03-15T02:04:29.576Z,-4.44
2018-03-15T02:05:39.560Z,-4.38
2018-03-15T02:06:49.281Z,-4.33
2018-03-15T02:07:59.016Z,-4.33
2018-03-15T02:09:09.031Z,-4.24
2018-03-15T02:10:18.761Z,-4.31
2018-03-15T02:11:28.493Z,-4.31
2018-03-15T02:12:38.487Z,-4.38
2018-03-15T02:13:48.473Z,-4.38
2018-03-15T02:14:58.464Z,-4.42
2018-03-15T02:16:07.917Z,-4.38
2018-03-15T02:17:17.693Z,-4.42
2018-03-15T02:18:27.419Z,-4.4
2018-03-15T02:19:37.414Z,-4.49
2018-03-15T02:20:47.447Z,-4.51
2018-03-15T02:21:57.460Z,-4.51
2018-03-15T02:23:07.203Z,-4.52
2018-03-15T02:24:16.934Z,-4.56
2018-03-15T02:25:26.921Z,-4.52
2018-03-15T02:26:36.377Z,-4.58
2018-03-15T02:27:46.373Z,-4.55
2018-03-15T02:28:55.831Z,-4.56
2018-03-15T02:30:05.554Z,-4.59
2018-03-15T02:31:15.294Z,-4.61
2018-03-15T02:32:25.306Z,-4.61
2018-03-15T02:33:35.302Z,-4.65
2018-03-15T02:34:45.322Z,-4.62
2018-03-15T02:35:55.336Z,-4.69
2018-03-15T02:37:05.339Z,-4.73
2018-03-15T02:38:15.343Z,-4.61
2018-03-15T02:39:25.409Z,-4.63
2018-03-15T02:40:35.203Z,-4.62
2018-03-15T02:41:44.963Z,-4.59
2018-03-15T02:42:54.971Z,-4.56
2018-03-15T02:44:04.707Z,-4.58
2018-03-15T02:45:14.710Z,-4.58
2018-03-15T02:46:24.444Z,-4.53
2018-03-15T02:47:34.186Z,-4.55
2018-03-15T02:48:44.197Z,-4.47
2018-03-15T02:49:54.186Z,-4.44
2018-03-15T02:51:03.921Z,-4.49
2018-03-15T02:52:13.919Z,-4.51
2018-03-15T02:53:23.974Z,-4.49
2018-03-15T02:54:33.699Z,-4.45
2018-03-15T02:55:43.726Z,-4.51
2018-03-15T02:56:53.741Z,-4.55
2018-03-15T02:58:03.475Z,-4.58
2018-03-15T02:59:12.948Z,-4.55
2018-03-15T03:00:22.677Z,-4.58
2018-03-15T03:01:32.676Z,-4.58
2018-03-15T03:02:42.741Z,-4.59
2018-03-15T03:03:52.736Z,-4.58
2018-03-15T03:05:02.746Z,-4.59
2018-03-15T03:06:12.216Z,-4.51
2018-03-15T03:07:22.217Z,-4.47
2018-03-15T03:08:32.221Z,-4.41
2018-03-15T03:09:41.948Z,-4.45
2018-03-15T03:10:51.947Z,-4.67
2018-03-15T03:12:01.673Z,-4.76
2018-03-15T03:13:11.412Z,-4.94
2018-03-15T03:14:21.456Z,-5.02
2018-03-15T03:15:31.182Z,-5.12
2018-03-15T03:16:41.173Z,-5.1
2018-03-15T03:17:50.908Z,-5.2
2018-03-15T03:19:00.637Z,-5.25
2018-03-15T03:20:10.137Z,-5.2
2018-03-15T03:21:20.195Z,-5.32
2018-03-15T03:22:29.917Z,-5.28
2018-03-15T03:23:39.370Z,-5.3
2018-03-15T03:24:49.402Z,-5.38
2018-03-15T03:25:59.393Z,-5.34
2018-03-15T03:27:08.849Z,-5.37
2018-03-15T03:28:18.967Z,-5.39
2018-03-15T03:29:28.957Z,-5.41
2018-03-15T03:30:38.689Z,-5.28
2018-03-15T03:31:48.151Z,-5.28
2018-03-15T03:32:58.138Z,-5.13
2018-03-15T03:34:08.134Z,-5.17
2018-03-15T03:35:18.124Z,-5.19
2018-03-15T03:36:27.585Z,-5.13
2018-03-15T03:37:37.588Z,-5.09
2018-03-15T03:38:47.576Z,-5.12
2018-03-15T03:39:57.572Z,-5.12
2018-03-15T03:41:07.301Z,-5.09
2018-03-15T03:42:17.023Z,-5.12
2018-03-15T03:43:27.018Z,-5.12
2018-03-15T03:44:37.010Z,-5.1
2018-03-15T03:45:46.731Z,-5.17
2018-03-15T03:46:56.456Z,-5.12
2018-03-15T03:48:06.183Z,-5.13
2018-03-15T03:49:15.911Z,-5.12
2018-03-15T03:50:25.912Z,-5.13
2018-03-15T03:51:35.368Z,-5.06
2018-03-15T03:52:45.353Z,-5.13
2018-03-15T03:53:54.541Z,-5.02
2018-03-15T03:55:03.999Z,-4.92
2018-03-15T03:56:13.720Z,-4.9
2018-03-15T03:57:23.711Z,-4.95
2018-03-15T03:58:33.703Z,-4.92
2018-03-15T03:59:43.167Z,-4.91
2018-03-15T04:03:29.121Z,-4.91
2018-03-15T04:04:39.122Z,-4.95
2018-03-15T04:05:48.842Z,-4.88
2018-03-15T04:06:58.565Z,-4.9
2018-03-15T04:08:08.330Z,-4.81
2018-03-15T04:09:18.315Z,-4.83
2018-03-15T04:10:28.303Z,-4.81
2018-03-15T04:11:38.294Z,-4.8
2018-03-15T04:12:48.290Z,-4.83
2018-03-15T04:13:58.283Z,-4.95
2018-03-15T04:15:08.006Z,-4.9
2018-03-15T04:16:18.006Z,-4.87
2018-03-15T04:17:27.999Z,-4.84
2018-03-15T04:18:37.998Z,-4.98
2018-03-15T04:19:47.994Z,-4.83
2018-03-15T04:20:58.100Z,-4.91
2018-03-15T04:22:07.836Z,-4.94
2018-03-15T04:23:17.832Z,-4.94
2018-03-15T04:24:27.560Z,-5
2018-03-15T04:25:37.548Z,-5.01
2018-03-15T04:26:47.274Z,-5.08
2018-03-15T04:27:56.194Z,-5.13
2018-03-15T04:29:05.965Z,-5.16
2018-03-15T04:30:15.690Z,-5.1
2018-03-15T04:31:25.150Z,-5.09
2018-03-15T04:32:35.141Z,-5.19
2018-03-15T04:33:45.141Z,-5.21
2018-03-15T04:34:55.133Z,-5.28
2018-03-15T04:36:05.136Z,-5.23
2018-03-15T04:37:14.628Z,-5.2
2018-03-15T04:38:24.629Z,-5.28
2018-03-15T04:39:34.357Z,-5.17
2018-03-15T04:40:44.341Z,-5.1
2018-03-15T04:41:54.331Z,-5.17
2018-03-15T04:43:04.053Z,-5.06
2018-03-15T04:44:13.782Z,-5.05
2018-03-15T04:45:23.251Z,-5.06
2018-03-15T04:46:33.245Z,-4.9
2018-03-15T04:47:43.362Z,-4.88
2018-03-15T04:48:53.346Z,-4.9
2018-03-15T04:50:07.337Z,-4.84
2018-03-15T04:51:17.444Z,-4.92
2018-03-15T04:52:27.437Z,-4.81
2018-03-15T04:53:37.428Z,-4.81
2018-03-15T04:54:47.430Z,-4.79
2018-03-15T04:55:57.163Z,-4.79
2018-03-15T04:57:06.884Z,-4.84
2018-03-15T04:58:16.073Z,-4.87
2018-03-15T04:59:25.793Z,-4.87
2018-03-15T05:00:35.250Z,-4.84
2018-03-15T05:01:45.309Z,-4.83
2018-03-15T05:02:55.029Z,-4.79
2018-03-15T05:04:05.020Z,-4.83
2018-03-15T05:05:15.025Z,-4.77
2018-03-15T05:06:24.743Z,-4.8
2018-03-15T05:07:34.473Z,-4.8
2018-03-15T05:08:44.465Z,-4.79
2018-03-15T05:09:54.462Z,-4.8
2018-03-15T05:11:04.570Z,-4.67
2018-03-15T05:12:14.573Z,-4.7
2018-03-15T05:13:24.355Z,-4.74
2018-03-15T05:14:33.552Z,-4.87
2018-03-15T05:15:43.268Z,-4.87
2018-03-15T05:16:52.988Z,-4.92
2018-03-15T05:18:02.712Z,-5.05
2018-03-15T05:19:12.174Z,-4.94
2018-03-15T05:20:22.164Z,-4.84
2018-03-15T05:21:31.623Z,-4.91
2018-03-15T05:22:40.816Z,-4.81
2018-03-15T05:23:50.801Z,-4.84
2018-03-15T05:25:00.792Z,-4.8
2018-03-15T05:26:10.779Z,-4.74
2018-03-15T05:27:20.774Z,-4.77
2018-03-15T05:28:30.781Z,-4.77
2018-03-15T05:29:40.499Z,-4.73
2018-03-15T05:30:50.496Z,-4.73
2018-03-15T05:32:00.222Z,-4.65
2018-03-15T05:33:09.944Z,-4.62
2018-03-15T05:34:19.664Z,-4.63
2018-03-15T05:35:29.388Z,-4.61
2018-03-15T05:36:39.386Z,-4.59
2018-03-15T05:37:49.117Z,-4.56
2018-03-15T05:38:58.839Z,-4.55
2018-03-15T05:40:08.838Z,-4.74
2018-03-15T05:41:18.830Z,-4.76
2018-03-15T05:42:28.822Z,-4.76
2018-03-15T05:43:38.551Z,-4.87
2018-03-15T05:44:48.577Z,-4.87
2018-03-15T05:45:58.656Z,-4.8
2018-03-15T05:47:08.385Z,-4.71
2018-03-15T05:48:17.851Z,-4.74
2018-03-15T05:49:27.583Z,-4.63
2018-03-15T05:50:37.570Z,-4.59
2018-03-15T05:51:46.759Z,-4.49
2018-03-15T05:52:56.492Z,-4.59
2018-03-15T05:54:06.209Z,-4.44
2018-03-15T05:55:15.664Z,-4.44
2018-03-15T05:56:25.119Z,-4.49
2018-03-15T05:57:35.114Z,-4.38
2018-03-15T05:58:44.848Z,-4.41
2018-03-15T05:59:55.150Z,-4.52
2018-03-15T06:01:05.162Z,-4.52
2018-03-15T06:02:14.624Z,-4.56
2018-03-15T06:03:24.611Z,-4.45
2018-03-15T06:04:33.534Z,-4.42
2018-03-15T06:05:43.265Z,-4.33
2018-03-15T06:06:53.255Z,-4.3
2018-03-15T06:08:03.243Z,-4.38
2018-03-15T06:09:12.979Z,-4.38
2018-03-15T06:10:22.969Z,-4.31
2018-03-15T06:11:32.964Z,-4.3
2018-03-15T06:12:42.154Z,-4.41
2018-03-15T06:13:52.143Z,-4.3
2018-03-15T06:15:01.356Z,-4.3
2018-03-15T06:16:11.352Z,-4.26
2018-03-15T06:17:20.544Z,-4.27
2018-03-15T06:18:30.534Z,-4.38
2018-03-15T06:19:40.537Z,-4.42
2018-03-15T06:20:50.532Z,-4.37
2018-03-15T06:22:00.535Z,-4.47
2018-03-15T06:23:10.528Z,-4.41
2018-03-15T06:24:20.525Z,-4.52
2018-03-15T06:25:30.250Z,-4.45
2018-03-15T06:26:40.261Z,-4.4
2018-03-15T06:27:50.256Z,-4.42
2018-03-15T06:29:00.048Z,-4.4
2018-03-15T06:30:09.237Z,-4.49
2018-03-15T06:31:19.232Z,-4.44
2018-03-15T06:32:28.699Z,-4.61
2018-03-15T06:33:38.697Z,-4.49
2018-03-15T06:34:48.694Z,-4.58
2018-03-15T06:35:58.686Z,-4.56
2018-03-15T06:37:07.885Z,-4.62
2018-03-15T06:38:17.620Z,-4.62
2018-03-15T06:39:27.345Z,-4.59
2018-03-15T06:40:36.539Z,-4.47
2018-03-15T06:41:46.539Z,-4.37
2018-03-15T06:42:55.997Z,-4.38
2018-03-15T06:44:05.722Z,-4.31
2018-03-15T06:45:15.720Z,-4.2
2018-03-15T06:46:25.450Z,-4.17
2018-03-15T06:47:35.440Z,-4.22
2018-03-15T06:48:45.433Z,-4.17
2018-03-15T06:49:55.426Z,-4.09
2018-03-15T06:51:05.411Z,-4.04
2018-03-15T06:52:15.562Z,-4.14
2018-03-15T06:53:25.558Z,-4.2
2018-03-15T06:54:35.280Z,-4.14
2018-03-15T06:55:45.283Z,-4.16
2018-03-15T06:56:55.276Z,-4.23
2018-03-15T06:58:05.271Z,-4.2
2018-03-15T06:59:15.272Z,-4.17
2018-03-15T07:00:24.999Z,-4.09
2018-03-15T07:01:34.462Z,-4.01
2018-03-15T07:02:44.191Z,-3.9
2018-03-15T07:03:53.890Z,-3.88
2018-03-15T07:05:03.572Z,-3.85
2018-03-15T07:06:13.590Z,-3.77
2018-03-15T07:07:23.593Z,-3.77
2018-03-15T07:08:33.586Z,-3.71
2018-03-15T07:09:43.325Z,-3.66
2018-03-15T07:10:53.319Z,-3.66
2018-03-15T07:12:03.312Z,-3.58
2018-03-15T07:13:13.053Z,-3.56
2018-03-15T07:14:23.046Z,-3.59
2018-03-15T07:15:32.773Z,-3.75
2018-03-15T07:16:42.820Z,-3.81
2018-03-15T07:17:52.835Z,-3.88
2018-03-15T07:19:02.826Z,-4.05
2018-03-15T07:20:11.752Z,-4.2
2018-03-15T07:21:21.476Z,-4.16
2018-03-15T07:22:31.477Z,-4.17
2018-03-15T07:23:41.201Z,-4.2
2018-03-15T07:24:51.192Z,-3.98
2018-03-15T07:26:00.917Z,-3.94
2018-03-15T07:27:10.648Z,-3.88
2018-03-15T07:28:20.416Z,-3.87
2018-03-15T07:29:30.413Z,-3.71
2018-03-15T07:30:40.402Z,-3.62
2018-03-15T07:31:50.406Z,-3.55
2018-03-15T07:33:00.398Z,-3.47
2018-03-15T07:34:10.396Z,-3.56
2018-03-15T07:35:20.420Z,-3.64
2018-03-15T07:36:30.144Z,-3.48
2018-03-15T07:37:39.873Z,-3.47
2018-03-15T07:38:49.868Z,-3.44
2018-03-15T07:39:59.859Z,-3.64
2018-03-15T07:41:09.860Z,-3.62
2018-03-15T07:42:19.854Z,-3.71
2018-03-15T07:43:29.889Z,-3.69
2018-03-15T07:44:39.664Z,-3.64
2018-03-15T07:45:49.660Z,-3.81
2018-03-15T07:46:59.385Z,-3.71
2018-03-15T07:48:09.377Z,-3.77
2018-03-15T07:49:18.569Z,-3.75
2018-03-15T07:50:28.811Z,-3.68
2018-03-15T07:51:38.267Z,-3.64
2018-03-15T07:52:48.261Z,-3.59
2018-03-15T07:53:58.251Z,-3.47
2018-03-15T07:55:07.985Z,-3.59
2018-03-15T07:56:17.731Z,-3.58
2018-03-15T07:57:27.725Z,-3.56
2018-03-15T07:58:37.721Z,-3.53
2018-03-15T07:59:47.450Z,-3.46
2018-03-15T08:00:56.647Z,-3.44
2018-03-15T08:02:06.223Z,-3.26
2018-03-15T08:03:16.266Z,-3.2
2018-03-15T08:04:25.999Z,-3.08
2018-03-15T08:05:35.742Z,-2.96
2018-03-15T08:06:45.746Z,-2.98
2018-03-15T08:07:55.744Z,-2.83
2018-03-15T08:09:05.472Z,-2.7
2018-03-15T08:10:15.206Z,-2.68
2018-03-15T08:11:24.937Z,-2.7
2018-03-15T08:12:35.036Z,-2.54
2018-03-15T08:13:45.037Z,-2.52
2018-03-15T08:14:55.033Z,-2.42
2018-03-15T08:16:05.043Z,-2.29
2018-03-15T08:17:15.103Z,-2.25
2018-03-15T08:18:25.094Z,-2.11
2018-03-15T08:19:35.103Z,-2
2018-03-15T08:20:45.189Z,-2.05
2018-03-15T08:21:55.230Z,-1.93
2018-03-15T08:23:05.248Z,-1.86
2018-03-15T08:24:15.070Z,-1.75
2018-03-15T08:25:24.659Z,-1.76
2018-03-15T08:26:34.660Z,-1.76
2018-03-15T08:27:44.653Z,-1.75
2018-03-15T08:28:54.381Z,-1.74
2018-03-15T08:30:04.403Z,-1.6
2018-03-15T08:31:13.880Z,-1.54
2018-03-15T08:32:23.880Z,-1.46
2018-03-15T08:33:34.504Z,-1.3
2018-03-15T08:34:44.234Z,-1.38
2018-03-15T08:35:54.229Z,-1.3
2018-03-15T08:37:03.965Z,-1.17
2018-03-15T08:38:13.425Z,-1.11
2018-03-15T08:39:23.151Z,-1
2018-03-15T08:40:33.144Z,-0.96
2018-03-15T08:41:43.168Z,-0.97
2018-03-15T08:42:53.212Z,-0.85
2018-03-15T08:44:03.202Z,-0.89
2018-03-15T08:45:13.200Z,-0.84
2018-03-15T08:46:23.199Z,-0.75
2018-03-15T08:47:32.664Z,-0.72
2018-03-15T08:48:42.392Z,-0.77
2018-03-15T08:49:52.120Z,-0.77
2018-03-15T08:51:01.848Z,-0.91
2018-03-15T08:52:11.308Z,-0.96
2018-03-15T08:53:21.077Z,-1
2018-03-15T08:54:30.811Z,-0.97
2018-03-15T08:55:40.563Z,-0.97
2018-03-15T08:56:50.555Z,-0.96
2018-03-15T08:58:00.568Z,-0.87
2018-03-15T08:59:10.299Z,-0.84
2018-03-15T09:00:20.027Z,-0.94
2018-03-15T09:01:29.488Z,-0.84
2018-03-15T09:02:39.482Z,-0.77
2018-03-15T09:03:49.480Z,-0.75
2018-03-15T09:04:59.288Z,-0.64
2018-03-15T09:06:09.301Z,-0.67
2018-03-15T09:07:19.335Z,-0.56
2018-03-15T09:08:28.807Z,-0.56
2018-03-15T09:09:38.806Z,-0.51
2018-03-15T09:10:48.808Z,-0.63
2018-03-15T09:11:58.596Z,-0.7
2018-03-15T09:13:08.322Z,-0.89
2018-03-15T09:14:18.054Z,-1.12
2018-03-15T09:15:28.054Z,-1
2018-03-15T09:16:37.786Z,-0.91
2018-03-15T09:17:47.898Z,-0.94
2018-03-15T09:18:57.895Z,-0.7
2018-03-15T09:20:07.909Z,-0.63
2018-03-15T09:21:17.907Z,-0.62
2018-03-15T09:22:27.637Z,-0.54
2018-03-15T09:23:37.739Z,-0.46
2018-03-15T09:24:47.589Z,-0.41
2018-03-15T09:25:57.597Z,-0.13
2018-03-15T09:27:07.338Z,-0.13
2018-03-15T09:28:17.384Z,0.02
2018-03-15T09:29:27.417Z,-0.03
2018-03-15T09:30:37.520Z,0.18
2018-03-15T09:31:47.631Z,0.26
2018-03-15T09:32:57.129Z,0.39
2018-03-15T09:34:06.706Z,0.45
2018-03-15T09:35:16.799Z,0.45
2018-03-15T09:36:26.886Z,0.56
2018-03-15T09:37:36.957Z,0.76
2018-03-15T09:38:47.071Z,0.81
2018-03-15T09:39:56.588Z,0.89
2018-03-15T09:41:06.137Z,0.81
2018-03-15T09:42:16.328Z,0.67
2018-03-15T09:43:26.452Z,0.48
2018-03-15T09:44:36.595Z,0.45
2018-03-15T09:45:46.900Z,0.56
2018-03-15T09:46:56.675Z,0.48
2018-03-15T09:48:06.768Z,0.49
2018-03-15T09:49:16.857Z,0.59
2018-03-15T09:50:26.666Z,0.64
2018-03-15T09:51:36.471Z,0.58
2018-03-15T09:52:46.561Z,0.52
2018-03-15T09:53:56.374Z,0.52
2018-03-15T09:55:06.524Z,0.42
2018-03-15T09:56:16.615Z,0.45
2018-03-15T09:57:26.690Z,0.61
2018-03-15T09:58:36.780Z,0.64
2018-03-15T09:59:46.879Z,0.7
2018-03-15T10:00:56.961Z,0.85
2018-03-15T10:02:06.781Z,0.82
2018-03-15T10:03:16.902Z,1.09
2018-03-15T10:04:27.020Z,1.06
2018-03-15T10:05:37.061Z,1.09
2018-03-15T10:06:46.897Z,1.12
2018-03-15T10:07:56.400Z,1.13
2018-03-15T10:09:06.342Z,1.31
2018-03-15T10:10:16.457Z,1.39
2018-03-15T10:11:26.585Z,1.57
2018-03-15T10:12:36.638Z,1.79
2018-03-15T10:13:46.702Z,1.81
2018-03-15T10:14:56.506Z,1.88
2018-03-15T10:16:06.314Z,1.98
2018-03-15T10:17:16.112Z,1.92
2018-03-15T10:18:26.176Z,2.07
2018-03-15T10:19:35.688Z,2.19
2018-03-15T10:20:45.761Z,2.28
2018-03-15T10:21:55.951Z,2.43
2018-03-15T10:23:06.035Z,2.55
2018-03-15T10:24:15.830Z,2.73
2018-03-15T10:25:31.792Z,2.68
2018-03-15T10:26:41.648Z,2.47
2018-03-15T10:27:51.444Z,2.22
2018-03-15T10:29:01.255Z,2.16
2018-03-15T10:30:10.784Z,2.22
2018-03-15T10:31:20.945Z,1.98
2018-03-15T10:32:30.744Z,1.97
2018-03-15T10:33:41.061Z,1.98
2018-03-15T10:34:51.642Z,1.98
2018-03-15T10:36:02.445Z,2.16
2018-03-15T10:37:13.146Z,1.95
2018-03-15T10:38:24.511Z,1.64
2018-03-15T10:39:37.248Z,1.57
2018-03-15T10:40:48.670Z,1.38
2018-03-15T10:41:59.440Z,1.57
2018-03-15T10:43:08.956Z,1.81
2018-03-15T10:44:19.266Z,1.93
2018-03-15T10:45:29.126Z,2.1
2018-03-15T10:46:39.322Z,2.22
2018-03-15T10:47:49.468Z,2.37
2018-03-15T10:48:59.678Z,2.43
2018-03-15T10:50:09.508Z,2.62
2018-03-15T10:51:19.292Z,2.68
2018-03-15T10:52:29.347Z,2.65
2018-03-15T10:53:39.445Z,2.75
2018-03-15T10:54:49.534Z,2.91
2018-03-15T10:55:59.362Z,3.01
2018-03-15T10:57:09.474Z,3.22
2018-03-15T10:58:19.304Z,3.45
2018-03-15T10:59:29.440Z,3.43
2018-03-15T11:00:39.527Z,3.56
2018-03-15T11:01:49.048Z,3.55
2018-03-15T11:02:59.199Z,3.67
2018-03-15T11:04:09.304Z,3.63
2018-03-15T11:05:19.395Z,3.58
2018-03-15T11:06:29.494Z,3.64
2018-03-15T11:07:39.299Z,3.34
2018-03-15T11:08:49.100Z,3.34
2018-03-15T11:09:59.174Z,3.31
2018-03-15T11:11:09.273Z,3.64
2018-03-15T11:12:19.060Z,3.76
2018-03-15T11:13:28.920Z,3.92
2018-03-15T11:14:39.640Z,4.12
2018-03-15T11:15:49.469Z,4.28
2018-03-15T11:16:59.555Z,4.24
2018-03-15T11:18:09.773Z,4.3
2018-03-15T11:19:19.884Z,4.34
2018-03-15T11:20:29.690Z,4.42
2018-03-15T11:21:39.495Z,4.53
2018-03-15T11:22:49.292Z,4.56
2018-03-15T11:23:59.455Z,4.49
2018-03-15T11:25:09.973Z,4.6
2018-03-15T11:26:20.099Z,4.66
2018-03-15T11:27:29.622Z,4.7
2018-03-15T11:28:39.707Z,4.86
2018-03-15T11:29:49.849Z,4.84
2018-03-15T11:30:59.631Z,5.01
2018-03-15T11:32:09.444Z,4.98
2018-03-15T11:33:19.544Z,5.08
2018-03-15T11:34:29.318Z,5.08
2018-03-15T11:35:39.401Z,5.13
2018-03-15T11:36:49.516Z,5.28
2018-03-15T11:38:00.646Z,5.36
2018-03-15T11:39:12.281Z,5.55
2018-03-15T11:40:25.255Z,5.8
2018-03-15T11:41:37.267Z,6.01
2018-03-15T11:42:48.743Z,6.16
2018-03-15T11:43:59.431Z,6.17
2018-03-15T11:45:09.521Z,6.31
2018-03-15T11:46:19.661Z,6.32
2018-03-15T11:47:29.790Z,5.76
2018-03-15T11:48:39.477Z,5.4
2018-03-15T11:49:49.346Z,5.46
2018-03-15T11:50:59.447Z,5.25
2018-03-15T11:52:09.257Z,5.02
2018-03-15T11:53:18.793Z,4.49
2018-03-15T11:54:28.318Z,4.38
2018-03-15T11:55:38.113Z,3.96
2018-03-15T11:56:47.973Z,3.88
2018-03-15T11:57:57.805Z,3.67
2018-03-15T11:59:07.662Z,3.56
2018-03-15T12:00:17.498Z,3.37
2018-03-15T12:01:27.587Z,3.63
2018-03-15T12:02:37.663Z,3.76
2018-03-15T12:03:47.775Z,3.71
2018-03-15T12:04:57.594Z,3.48
2018-03-15T12:06:07.668Z,3.37
2018-03-15T12:07:17.532Z,2.93
2018-03-15T12:08:27.616Z,2.97
2018-03-15T12:09:37.404Z,2.62
2018-03-15T12:10:47.217Z,2.39
2018-03-15T12:11:57.331Z,2.5
2018-03-15T12:13:07.431Z,2.21
2018-03-15T12:14:17.570Z,2.16
2018-03-15T12:15:27.636Z,1.92
2018-03-15T12:16:37.401Z,1.64
2018-03-15T12:17:47.404Z,1.5
2018-03-15T12:18:57.145Z,1.57
2018-03-15T12:20:06.895Z,1.46
2018-03-15T12:21:16.907Z,1.56
2018-03-15T12:22:26.649Z,1.52
2018-03-15T12:23:36.651Z,1.74
2018-03-15T12:24:46.385Z,1.84
2018-03-15T12:25:56.126Z,2.01
2018-03-15T12:27:05.327Z,2.14
2018-03-15T12:28:15.355Z,2.33
2018-03-15T12:29:24.825Z,2.25
2018-03-15T12:30:34.831Z,2.4
2018-03-15T12:31:44.310Z,2.65
2018-03-15T12:32:53.781Z,3.21
2018-03-15T12:34:03.804Z,3.56
2018-03-15T12:35:13.543Z,3.61
2018-03-15T12:36:23.287Z,3.68
2018-03-15T12:37:33.304Z,3.5
2018-03-15T12:38:43.064Z,3.74
2018-03-15T12:39:52.804Z,3.81
2018-03-15T12:41:02.550Z,3.94
2018-03-15T12:42:12.301Z,4.14
2018-03-15T12:43:22.312Z,4.13
2018-03-15T12:44:31.524Z,4.52
2018-03-15T12:45:41.538Z,4.48
2018-03-15T12:46:51.616Z,4.79
2018-03-15T12:48:01.464Z,5.01
2018-03-15T12:49:11.477Z,5.04
2018-03-15T12:50:21.221Z,5.01
2018-03-15T12:51:31.048Z,5
2018-03-15T12:52:41.069Z,5.04
2018-03-15T12:53:50.813Z,5.02
2018-03-15T12:55:00.557Z,5.2
2018-03-15T12:56:10.569Z,5.37
2018-03-15T12:57:20.555Z,5.77
2018-03-15T12:58:30.756Z,6.16
2018-03-15T12:59:40.766Z,6.2
2018-03-15T13:00:50.779Z,6.36
2018-03-15T13:02:00.521Z,6.53
2018-03-15T13:03:10.276Z,6.7
2018-03-15T13:04:20.025Z,6.93
2018-03-15T13:05:29.770Z,7.11
2018-03-15T13:06:39.513Z,7.07
2018-03-15T13:07:49.526Z,7.29
2018-03-15T13:08:59.538Z,7.58
2018-03-15T13:10:09.556Z,7.93
2018-03-15T13:11:19.304Z,8.21
2018-03-15T13:12:29.057Z,8.26
2018-03-15T13:13:39.070Z,8.31
2018-03-15T13:14:49.086Z,8.17
2018-03-15T13:15:59.102Z,7.85
2018-03-15T13:17:08.636Z,7.5
2018-03-15T13:18:18.120Z,7.14
2018-03-15T13:19:27.864Z,7.11
2018-03-15T13:20:37.609Z,6.82
2018-03-15T13:21:47.137Z,6.34
2018-03-15T13:22:56.937Z,5.97
2018-03-15T13:24:06.704Z,5.79
2018-03-15T13:25:16.452Z,5.65
2018-03-15T13:26:26.212Z,5.41
2018-03-15T13:27:36.159Z,5.19
2018-03-15T13:28:46.170Z,5.08
2018-03-15T13:29:56.187Z,5.04
2018-03-15T13:31:06.205Z,4.97
2018-03-15T13:32:15.145Z,4.78
2018-03-15T13:33:24.621Z,4.79
2018-03-15T13:34:34.797Z,4.67
2018-03-15T13:35:44.603Z,4.67
2018-03-15T13:36:54.611Z,4.43
2018-03-15T13:38:04.109Z,4.27
2018-03-15T13:39:13.961Z,4.04
2018-03-15T13:40:24.081Z,4.28
2018-03-15T13:41:33.559Z,4.3
2018-03-15T13:42:43.574Z,4.03
2018-03-15T13:43:53.582Z,3.81
2018-03-15T13:45:03.085Z,3.7
2018-03-15T13:46:12.874Z,3.55
2018-03-15T13:47:22.350Z,3.64
2018-03-15T13:48:32.537Z,3.55
2018-03-15T13:49:42.768Z,3.64
2018-03-15T13:50:52.533Z,3.58
2018-03-15T13:52:02.666Z,3.56
2018-03-15T13:53:12.735Z,3.5
2018-03-15T13:54:22.750Z,3.58
2018-03-15T13:55:32.489Z,3.48
2018-03-15T13:56:42.230Z,3.34
2018-03-15T13:57:52.237Z,3.33
2018-03-15T13:59:01.993Z,3.3
2018-03-15T14:00:11.732Z,3.31
2018-03-15T14:01:21.737Z,3.21
2018-03-15T14:02:31.216Z,3.21
2018-03-15T14:03:41.390Z,3.27
2018-03-15T14:04:51.447Z,3.3
2018-03-15T14:06:01.497Z,3.53
2018-03-15T14:07:10.438Z,3.67
2018-03-15T14:08:20.443Z,4.02
2018-03-15T14:09:30.187Z,4.09
2018-03-15T14:10:40.193Z,4.14
2018-03-15T14:11:49.955Z,4.32
2018-03-15T14:12:59.972Z,4.52
2018-03-15T14:14:09.444Z,4.5
2018-03-15T14:15:18.921Z,4.68
2018-03-15T14:16:28.991Z,4.82
2018-03-15T14:17:38.479Z,5
2018-03-15T14:18:48.565Z,5.33
2018-03-15T14:19:58.586Z,5.51
2018-03-15T14:21:07.793Z,5.67
2018-03-15T14:22:17.555Z,5.83
2018-03-15T14:23:27.298Z,5.94
2018-03-15T14:24:37.036Z,6.13
2018-03-15T14:25:46.772Z,6.29
2018-03-15T14:26:56.823Z,6.31
2018-03-15T14:28:06.558Z,5.87
2018-03-15T14:29:16.700Z,5.73
2018-03-15T14:30:26.982Z,5.58
2018-03-15T14:31:36.998Z,5.55
2018-03-15T14:32:47.006Z,5.76
2018-03-15T14:33:57.012Z,5.87
2018-03-15T14:35:06.769Z,5.64
2018-03-15T14:36:16.773Z,5.36
2018-03-15T14:37:26.797Z,5.2
2018-03-15T14:38:36.803Z,5.13
2018-03-15T14:39:46.913Z,5
2018-03-15T14:40:56.744Z,4.84
2018-03-15T14:42:06.810Z,4.6
2018-03-15T14:43:16.562Z,4.36
2018-03-15T14:44:26.294Z,3.96
2018-03-15T14:45:36.038Z,3.56
2018-03-15T14:46:46.126Z,3.27
2018-03-15T14:47:56.140Z,3.18
2018-03-15T14:49:05.880Z,3.19
2018-03-15T14:50:15.621Z,3.13
2018-03-15T14:51:25.399Z,3.27
2018-03-15T14:52:34.920Z,3.19
2018-03-15T14:53:44.933Z,3
2018-03-15T14:54:54.674Z,3.59
2018-03-15T14:56:04.141Z,3.7
2018-03-15T14:57:13.608Z,3.7
2018-03-15T14:58:23.610Z,3.48
2018-03-15T14:59:33.351Z,3.26
2018-03-15T15:00:42.819Z,3.15
2018-03-15T15:01:52.294Z,3.58
2018-03-15T15:03:02.302Z,3.99
2018-03-15T15:04:12.045Z,4.14
2018-03-15T15:05:22.045Z,4.4
2018-03-15T15:06:32.048Z,4.68
2018-03-15T15:07:41.615Z,5.01
2018-03-15T15:08:51.353Z,5.36
2018-03-15T15:10:01.357Z,5.41
2018-03-15T15:11:11.370Z,5.56
2018-03-15T15:12:21.377Z,5.7
2018-03-15T15:13:31.390Z,5.56
2018-03-15T15:14:41.128Z,5.7
2018-03-15T15:15:51.129Z,5.76
2018-03-15T15:17:00.879Z,5.91